createdAt,value
2023-05-14T00:00:29.467Z,99.90
2023-05-14T00:02:36.400Z,99.90
2023-05-14T00:04:43.679Z,99.90
2023-05-14T00:06:50.653Z,99.90
2023-05-14T00:08:58.399Z,99.90
2023-05-14T00:11:05.271Z,99.90
2023-05-14T00:13:12.405Z,99.90
2023-05-14T00:15:19.227Z,99.90
2023-05-14T00:17:28.178Z,99.90
2023-05-14T00:19:34.974Z,99.90
2023-05-14T00:21:42.310Z,99.90
2023-05-14T00:23:49.132Z,99.90
2023-05-14T00:25:56.167Z,99.90
2023-05-14T00:28:02.881Z,99.90
2023-05-14T00:30:10.934Z,99.90
2023-05-14T00:32:17.770Z,99.90
2023-05-14T00:34:26.533Z,99.90
2023-05-14T00:36:34.015Z,99.90
2023-05-14T00:38:40.845Z,99.90
2023-05-14T00:40:52.266Z,99.90
2023-05-14T00:42:59.659Z,99.90
2023-05-14T00:45:07.100Z,99.90
2023-05-14T00:47:13.973Z,99.90
2023-05-14T00:49:22.181Z,99.90
2023-05-14T00:51:30.890Z,99.90
2023-05-14T00:53:38.848Z,99.90
2023-05-14T00:55:46.431Z,99.90
2023-05-14T00:57:56.429Z,99.30
2023-05-14T01:00:04.287Z,99.00
2023-05-14T01:02:11.468Z,98.40
2023-05-14T01:04:18.694Z,98.20
2023-05-14T01:06:34.988Z,98.20
2023-05-14T01:08:52.462Z,98.40
2023-05-14T01:11:06.809Z,98.50
2023-05-14T01:13:22.081Z,98.70
2023-05-14T01:15:33.154Z,98.60
2023-05-14T01:17:45.008Z,98.60
2023-05-14T01:19:54.375Z,98.40
2023-05-14T01:22:02.943Z,98.30
2023-05-14T01:24:10.943Z,98.00
2023-05-14T01:26:18.021Z,97.70
2023-05-14T01:28:30.883Z,97.40
2023-05-14T01:30:40.675Z,97.20
2023-05-14T01:32:51.502Z,96.80
2023-05-14T01:35:01.443Z,96.30
2023-05-14T01:37:14.716Z,96.00
2023-05-14T01:39:22.081Z,95.40
2023-05-14T01:41:29.777Z,95.10
2023-05-14T01:43:38.267Z,94.90
2023-05-14T01:45:46.692Z,94.80
2023-05-14T01:47:53.828Z,94.50
2023-05-14T01:50:00.964Z,94.50
2023-05-14T01:52:10.775Z,93.70
2023-05-14T01:54:17.950Z,93.60
2023-05-14T01:56:26.564Z,93.40
2023-05-14T01:58:33.752Z,93.20
2023-05-14T02:00:40.775Z,92.80
2023-05-14T02:02:47.985Z,92.70
2023-05-14T02:04:56.110Z,92.20
2023-05-14T02:07:04.580Z,92.20
2023-05-14T02:09:13.071Z,91.90
2023-05-14T02:11:20.490Z,91.70
2023-05-14T02:13:27.862Z,91.30
2023-05-14T02:15:35.568Z,91.10
2023-05-14T02:17:42.864Z,90.70
2023-05-14T02:19:50.793Z,90.30
2023-05-14T02:21:57.715Z,89.20
2023-05-14T02:24:05.000Z,89.60
2023-05-14T02:26:13.769Z,89.90
2023-05-14T02:28:20.744Z,90.00
2023-05-14T02:30:27.720Z,90.10
2023-05-14T02:32:34.955Z,89.90
2023-05-14T02:34:41.941Z,89.30
2023-05-14T02:36:49.114Z,89.00
2023-05-14T02:38:55.932Z,88.20
2023-05-14T02:41:03.072Z,87.60
2023-05-14T02:43:11.576Z,87.20
2023-05-14T02:45:18.808Z,86.90
2023-05-14T02:47:25.765Z,86.40
2023-05-14T02:49:33.027Z,86.20
2023-05-14T02:51:39.949Z,86.30
2023-05-14T02:53:47.332Z,86.50
2023-05-14T02:55:54.262Z,86.40
2023-05-14T02:58:01.704Z,86.10
2023-05-14T03:00:11.798Z,85.80
2023-05-14T03:02:19.520Z,86.10
2023-05-14T03:04:27.087Z,86.60
2023-05-14T03:06:34.368Z,87.00
2023-05-14T03:08:41.138Z,87.00
2023-05-14T03:10:48.217Z,87.00
2023-05-14T03:12:55.099Z,87.20
2023-05-14T03:15:02.156Z,87.40
2023-05-14T03:17:10.967Z,87.20
2023-05-14T03:19:19.147Z,87.10
2023-05-14T03:21:26.197Z,86.60
2023-05-14T03:23:35.978Z,86.10
2023-05-14T03:25:42.795Z,85.50
2023-05-14T03:27:49.981Z,85.30
2023-05-14T03:29:56.954Z,84.90
2023-05-14T03:32:04.129Z,84.70
2023-05-14T03:34:12.796Z,84.40
2023-05-14T03:36:19.982Z,84.00
2023-05-14T03:38:27.523Z,83.20
2023-05-14T03:40:34.955Z,82.70
2023-05-14T03:42:41.830Z,82.90
2023-05-14T03:44:50.344Z,82.40
2023-05-14T03:46:57.216Z,81.90
2023-05-14T03:49:04.477Z,81.40
2023-05-14T03:51:13.279Z,81.40
2023-05-14T03:53:20.712Z,81.80
2023-05-14T03:55:28.099Z,82.40
2023-05-14T03:57:34.864Z,82.60
2023-05-14T03:59:42.609Z,82.50
2023-05-14T04:01:49.434Z,82.90
2023-05-14T04:03:56.789Z,83.20
2023-05-14T04:06:04.001Z,83.10
2023-05-14T04:08:12.823Z,82.90
2023-05-14T04:10:19.806Z,82.80
2023-05-14T04:12:27.750Z,82.40
2023-05-14T04:14:34.607Z,81.30
2023-05-14T04:16:43.039Z,80.60
2023-05-14T04:18:50.609Z,81.00
2023-05-14T04:20:57.892Z,80.70
2023-05-14T04:23:05.045Z,80.50
2023-05-14T04:25:14.681Z,80.10
2023-05-14T04:27:24.682Z,79.30
2023-05-14T04:29:31.862Z,78.50
2023-05-14T04:31:39.465Z,78.60
2023-05-14T04:33:46.679Z,78.70
2023-05-14T04:35:53.619Z,78.90
2023-05-14T04:38:00.665Z,77.90
2023-05-14T04:40:08.134Z,77.80
2023-05-14T04:42:17.097Z,77.70
2023-05-14T04:44:23.815Z,77.10
2023-05-14T04:46:31.060Z,77.00
2023-05-14T04:48:38.132Z,77.20
2023-05-14T04:50:45.261Z,77.10
2023-05-14T04:52:52.137Z,76.60
2023-05-14T04:54:59.259Z,76.60
2023-05-14T04:57:06.027Z,76.80
2023-05-14T04:59:14.803Z,76.30
2023-05-14T05:01:22.120Z,75.50
2023-05-14T05:03:29.487Z,75.70
2023-05-14T05:05:36.466Z,75.70
2023-05-14T05:07:43.536Z,76.20
2023-05-14T05:09:50.366Z,76.50
2023-05-14T05:11:57.489Z,76.70
2023-05-14T05:14:04.481Z,76.80
2023-05-14T05:16:13.295Z,76.80
2023-05-14T05:18:20.174Z,77.20
2023-05-14T05:20:29.080Z,77.30
2023-05-14T05:22:36.007Z,75.80
2023-05-14T05:24:43.039Z,75.60
2023-05-14T05:26:51.241Z,75.50
2023-05-14T05:28:58.730Z,75.20
2023-05-14T05:31:05.616Z,74.00
2023-05-14T05:33:14.478Z,74.60
2023-05-14T05:35:22.127Z,74.70
2023-05-14T05:37:29.095Z,74.40
2023-05-14T05:39:36.229Z,74.40
2023-05-14T05:41:43.674Z,74.60
2023-05-14T05:43:50.944Z,74.50
2023-05-14T05:45:57.924Z,74.90
2023-05-14T05:48:05.123Z,74.10
2023-05-14T05:50:14.792Z,73.40
2023-05-14T05:52:21.975Z,72.30
2023-05-14T05:54:28.950Z,71.90
2023-05-14T05:56:35.980Z,71.60
2023-05-14T05:58:43.076Z,72.20
2023-05-14T06:00:50.547Z,72.80
2023-05-14T06:02:57.386Z,73.60
2023-05-14T06:05:04.733Z,74.30
2023-05-14T06:07:13.420Z,74.60
2023-05-14T06:09:20.605Z,74.60
2023-05-14T06:11:27.735Z,74.50
2023-05-14T06:13:34.854Z,74.80
2023-05-14T06:15:41.699Z,75.10
2023-05-14T06:17:48.920Z,74.90
2023-05-14T06:19:56.055Z,74.90
2023-05-14T06:22:03.096Z,74.90
2023-05-14T06:24:12.311Z,75.10
2023-05-14T06:26:19.751Z,74.60
2023-05-14T06:28:26.585Z,74.20
2023-05-14T06:30:33.504Z,73.70
2023-05-14T06:32:40.456Z,72.90
2023-05-14T06:34:47.677Z,72.70
2023-05-14T06:36:54.479Z,72.60
2023-05-14T06:39:01.712Z,72.00
2023-05-14T06:41:10.273Z,71.80
2023-05-14T06:43:17.558Z,71.70
2023-05-14T06:45:24.430Z,70.30
2023-05-14T06:47:31.650Z,70.80
2023-05-14T06:49:38.853Z,70.70
2023-05-14T06:51:45.791Z,70.10
2023-05-14T06:53:53.617Z,70.30
2023-05-14T06:56:00.597Z,70.20
2023-05-14T06:58:10.548Z,70.10
2023-05-14T07:00:18.702Z,70.00
2023-05-14T07:02:26.014Z,69.30
2023-05-14T07:04:33.199Z,69.00
2023-05-14T07:06:40.445Z,69.20
2023-05-14T07:08:48.602Z,69.20
2023-05-14T07:10:55.883Z,69.10
2023-05-14T07:13:02.817Z,69.10
2023-05-14T07:15:13.304Z,68.60
2023-05-14T07:17:20.590Z,68.90
2023-05-14T07:19:29.745Z,68.30
2023-05-14T07:21:36.792Z,67.70
2023-05-14T07:23:43.635Z,67.20
2023-05-14T07:25:50.761Z,67.20
2023-05-14T07:27:57.533Z,66.80
2023-05-14T07:30:04.495Z,65.70
2023-05-14T07:32:15.425Z,65.80
2023-05-14T07:34:22.245Z,66.20
2023-05-14T07:36:29.132Z,65.20
2023-05-14T07:38:36.559Z,66.80
2023-05-14T07:40:43.537Z,67.30
2023-05-14T07:42:50.626Z,66.90
2023-05-14T07:44:57.446Z,66.60
2023-05-14T07:47:05.206Z,66.70
2023-05-14T07:49:13.808Z,67.00
2023-05-14T07:51:20.987Z,66.80
2023-05-14T07:53:28.425Z,66.70
2023-05-14T07:55:35.553Z,66.90
2023-05-14T07:57:42.995Z,66.90
2023-05-14T07:59:50.635Z,67.30
2023-05-14T08:01:57.823Z,67.30
2023-05-14T08:04:05.103Z,67.40
2023-05-14T08:06:13.567Z,67.80
2023-05-14T08:08:20.592Z,67.80
2023-05-14T08:10:27.956Z,68.00
2023-05-14T08:12:35.363Z,67.50
2023-05-14T08:14:42.217Z,67.00
2023-05-14T08:16:49.636Z,67.00
2023-05-14T08:18:58.851Z,67.10
2023-05-14T08:21:05.940Z,67.10
2023-05-14T08:23:14.455Z,67.10
2023-05-14T08:25:21.783Z,67.00
2023-05-14T08:27:28.669Z,67.20
2023-05-14T08:29:35.842Z,67.60
2023-05-14T08:31:43.867Z,68.10
2023-05-14T08:33:51.177Z,67.50
2023-05-14T08:35:59.280Z,67.00
2023-05-14T08:38:06.567Z,66.70
2023-05-14T08:40:16.106Z,67.00
2023-05-14T08:42:27.176Z,66.40
2023-05-14T08:44:39.377Z,66.10
2023-05-14T08:46:47.236Z,65.60
2023-05-14T08:49:01.054Z,65.70
2023-05-14T08:51:09.827Z,65.50
2023-05-14T08:53:17.160Z,65.80
2023-05-14T08:55:27.160Z,65.80
2023-05-14T08:57:35.516Z,66.10
2023-05-14T08:59:42.499Z,66.30
2023-05-14T09:01:51.712Z,66.10
2023-05-14T09:03:59.633Z,66.60
2023-05-14T09:06:08.031Z,67.20
2023-05-14T09:08:15.312Z,67.70
2023-05-14T09:10:22.814Z,68.10
2023-05-14T09:12:32.236Z,68.00
2023-05-14T09:14:39.160Z,68.00
2023-05-14T09:16:49.537Z,68.20
2023-05-14T09:18:56.575Z,68.60
2023-05-14T09:21:04.712Z,68.90
2023-05-14T09:23:11.525Z,69.60
2023-05-14T09:25:18.706Z,69.80
2023-05-14T09:27:26.968Z,70.10
2023-05-14T09:29:36.090Z,69.80
2023-05-14T09:31:43.115Z,69.70
2023-05-14T09:33:54.172Z,69.70
2023-05-14T09:36:03.277Z,69.80
2023-05-14T09:38:10.858Z,69.80
2023-05-14T09:40:19.073Z,69.80
2023-05-14T09:42:26.348Z,69.80
2023-05-14T09:44:35.020Z,69.70
2023-05-14T09:46:42.178Z,69.80
2023-05-14T09:48:50.203Z,69.60
2023-05-14T09:50:57.325Z,69.40
2023-05-14T09:53:04.870Z,69.50
2023-05-14T09:55:12.714Z,69.30
2023-05-14T09:57:19.593Z,69.50
2023-05-14T09:59:26.717Z,69.70
2023-05-14T10:01:35.726Z,70.20
2023-05-14T10:03:43.743Z,70.40
2023-05-14T10:05:53.851Z,69.70
2023-05-14T10:08:02.722Z,69.70
2023-05-14T10:10:13.638Z,69.90
2023-05-14T10:12:23.327Z,70.10
2023-05-14T10:14:36.451Z,70.60
2023-05-14T10:16:50.070Z,71.70
2023-05-14T10:19:03.841Z,71.70
2023-05-14T10:21:11.361Z,71.20
2023-05-14T10:23:18.278Z,71.00
2023-05-14T10:25:26.179Z,71.30
2023-05-14T10:27:33.069Z,71.50
2023-05-14T10:29:41.104Z,71.50
2023-05-14T10:31:55.594Z,71.50
2023-05-14T10:34:02.738Z,71.40
2023-05-14T10:36:10.801Z,71.40
2023-05-14T10:38:19.505Z,71.30
2023-05-14T10:40:27.657Z,71.40
2023-05-14T10:42:38.580Z,71.30
2023-05-14T10:44:55.171Z,71.30
2023-05-14T10:47:04.311Z,71.20
2023-05-14T10:49:11.288Z,71.20
2023-05-14T10:51:21.822Z,71.30
2023-05-14T10:53:37.169Z,71.20
2023-05-14T10:55:45.426Z,71.30
2023-05-14T10:57:53.275Z,71.50
2023-05-14T11:00:01.413Z,71.70
2023-05-14T11:02:26.659Z,71.80
2023-05-14T11:04:34.788Z,72.00
2023-05-14T11:06:43.044Z,72.30
2023-05-14T11:08:50.482Z,72.50
2023-05-14T11:10:58.795Z,72.60
2023-05-14T11:13:05.974Z,72.60
2023-05-14T11:15:14.852Z,72.50
2023-05-14T11:17:24.017Z,72.80
2023-05-14T11:19:30.846Z,72.80
2023-05-14T11:21:38.084Z,72.90
2023-05-14T11:23:45.008Z,73.10
2023-05-14T11:25:52.574Z,72.70
2023-05-14T11:28:01.825Z,72.00
2023-05-14T11:30:15.408Z,71.80
2023-05-14T11:32:24.128Z,71.60
2023-05-14T11:34:31.767Z,71.40
2023-05-14T11:36:40.842Z,71.90
2023-05-14T11:38:53.152Z,72.70
2023-05-14T11:41:01.666Z,73.50
2023-05-14T11:43:09.410Z,74.00
2023-05-14T11:45:17.251Z,74.20
2023-05-14T11:47:26.360Z,74.60
2023-05-14T11:49:33.421Z,74.90
2023-05-14T11:51:40.539Z,75.50
2023-05-14T11:53:48.283Z,75.60
2023-05-14T11:55:56.009Z,76.00
2023-05-14T11:58:03.051Z,76.40
2023-05-14T12:00:14.548Z,76.50
2023-05-14T12:02:23.935Z,76.70
2023-05-14T12:04:33.283Z,77.00
2023-05-14T12:06:42.018Z,77.20
2023-05-14T12:08:52.064Z,77.10
2023-05-14T12:10:59.153Z,77.80
2023-05-14T12:13:11.038Z,78.40
2023-05-14T12:15:19.198Z,79.20
2023-05-14T12:17:27.049Z,79.90
2023-05-14T12:19:35.808Z,80.40
2023-05-14T12:21:43.414Z,80.50
2023-05-14T12:23:50.528Z,80.00
2023-05-14T12:25:57.658Z,80.10
2023-05-14T12:28:05.473Z,80.10
2023-05-14T12:32:24.812Z,80.00
2023-05-14T12:34:32.018Z,80.00
2023-05-14T12:36:40.581Z,80.10
2023-05-14T12:38:48.276Z,80.20
2023-05-14T12:40:55.147Z,80.70
2023-05-14T12:43:02.688Z,80.70
2023-05-14T12:45:10.648Z,80.20
2023-05-14T12:47:18.350Z,80.00
2023-05-14T12:49:25.156Z,79.90
2023-05-14T12:51:32.439Z,79.60
2023-05-14T12:53:41.221Z,79.50
2023-05-14T12:55:48.448Z,79.30
2023-05-14T12:57:55.266Z,79.30
2023-05-14T13:00:02.531Z,79.60
2023-05-14T13:02:09.936Z,79.40
2023-05-14T13:04:17.246Z,79.40
2023-05-14T13:06:24.231Z,79.60
2023-05-14T13:08:31.486Z,79.90
2023-05-14T13:10:40.145Z,80.40
2023-05-14T13:12:47.327Z,81.00
2023-05-14T13:14:54.238Z,81.70
2023-05-14T13:17:01.604Z,81.70
2023-05-14T13:19:08.507Z,81.60
2023-05-14T13:21:15.798Z,81.80
2023-05-14T13:23:22.571Z,82.00
2023-05-14T13:25:30.321Z,82.10
2023-05-14T13:27:38.838Z,82.00
2023-05-14T13:29:45.969Z,82.30
2023-05-14T13:31:52.784Z,82.60
2023-05-14T13:34:00.785Z,82.80
2023-05-14T13:36:08.485Z,83.30
2023-05-14T13:38:15.554Z,83.30
2023-05-14T13:40:22.535Z,83.30
2023-05-14T13:42:29.871Z,83.20
2023-05-14T13:44:38.773Z,83.30
2023-05-14T13:46:46.414Z,83.70
2023-05-14T13:48:53.410Z,83.80
2023-05-14T13:51:00.411Z,83.90
2023-05-14T13:53:07.258Z,83.60
2023-05-14T13:55:14.347Z,83.80
2023-05-14T13:57:21.217Z,83.80
2023-05-14T13:59:28.856Z,83.80
2023-05-14T14:01:37.522Z,83.80
2023-05-14T14:03:44.709Z,84.20
2023-05-14T14:05:53.134Z,84.40
2023-05-14T14:08:04.602Z,84.20
2023-05-14T14:10:20.128Z,84.20
2023-05-14T14:12:27.664Z,84.30
2023-05-14T14:14:34.597Z,84.30
2023-05-14T14:16:43.296Z,84.40
2023-05-14T14:18:50.392Z,85.10
2023-05-14T14:20:57.370Z,85.20
2023-05-14T14:23:04.498Z,85.10
2023-05-14T14:25:13.263Z,85.10
2023-05-14T14:27:20.639Z,85.10
2023-05-14T14:29:27.630Z,85.10
2023-05-14T14:31:34.893Z,85.30
2023-05-14T14:33:43.942Z,85.40
2023-05-14T14:35:51.272Z,85.70
2023-05-14T14:37:58.150Z,85.70
2023-05-14T14:40:06.405Z,85.90
2023-05-14T14:42:13.285Z,86.00
2023-05-14T14:44:20.567Z,86.30
2023-05-14T14:46:27.664Z,86.20
2023-05-14T14:48:38.510Z,86.00
2023-05-14T14:50:47.091Z,86.20
2023-05-14T14:52:54.205Z,86.30
2023-05-14T14:55:01.054Z,86.80
2023-05-14T14:57:08.519Z,86.80
2023-05-14T14:59:15.650Z,86.80
2023-05-14T15:01:23.786Z,86.80
2023-05-14T15:03:30.713Z,86.80
2023-05-14T15:05:37.914Z,87.00
2023-05-14T15:07:46.429Z,87.10
2023-05-14T15:09:53.557Z,86.90
2023-05-14T15:12:00.690Z,86.70
2023-05-14T15:14:07.817Z,86.60
2023-05-14T15:16:15.177Z,86.50
2023-05-14T15:18:22.338Z,86.60
2023-05-14T15:20:29.211Z,86.60
2023-05-14T15:22:36.355Z,86.60
2023-05-14T15:24:44.864Z,86.70
2023-05-14T15:26:53.307Z,87.00
2023-05-14T15:29:00.815Z,87.30
2023-05-14T15:31:08.673Z,87.60
2023-05-14T15:33:18.800Z,87.90
2023-05-14T15:35:26.249Z,88.00
2023-05-14T15:37:40.670Z,88.00
2023-05-14T15:39:49.506Z,88.20
2023-05-14T15:41:56.281Z,88.10
2023-05-14T15:44:03.626Z,88.10
2023-05-14T15:46:10.583Z,88.10
2023-05-14T15:48:17.977Z,88.00
2023-05-14T15:50:25.458Z,88.10
2023-05-14T15:52:32.650Z,87.90
2023-05-14T15:54:39.521Z,87.80
2023-05-14T15:56:48.442Z,87.50
2023-05-14T15:58:55.351Z,87.40
2023-05-14T16:01:02.551Z,87.30
2023-05-14T16:03:09.728Z,87.30
2023-05-14T16:05:17.896Z,87.30
2023-05-14T16:07:24.868Z,87.20
2023-05-14T16:09:31.872Z,87.20
2023-05-14T16:11:38.923Z,87.10
2023-05-14T16:13:47.739Z,87.00
2023-05-14T16:15:54.614Z,87.00
2023-05-14T16:18:02.807Z,87.00
2023-05-14T16:20:10.650Z,87.00
2023-05-14T16:22:18.000Z,86.80
2023-05-14T16:24:24.768Z,86.50
2023-05-14T16:26:31.902Z,86.40
2023-05-14T16:28:42.138Z,86.30
2023-05-14T16:30:50.876Z,86.10
2023-05-14T16:32:57.688Z,85.60
2023-05-14T16:35:04.786Z,85.50
2023-05-14T16:37:13.129Z,85.10
2023-05-14T16:39:20.424Z,84.70
2023-05-14T16:41:27.496Z,84.60
2023-05-14T16:43:34.627Z,84.30
2023-05-14T16:45:41.345Z,84.20
2023-05-14T16:47:50.252Z,84.30
2023-05-14T16:49:57.039Z,84.40
2023-05-14T16:52:04.066Z,84.10
2023-05-14T16:54:10.955Z,84.00
2023-05-14T16:56:18.117Z,83.90
2023-05-14T16:58:24.939Z,83.70
2023-05-14T17:00:32.019Z,83.50
2023-05-14T17:02:38.907Z,83.30
2023-05-14T17:04:48.085Z,83.30
2023-05-14T17:06:55.059Z,83.30
2023-05-14T17:09:02.379Z,83.30
2023-05-14T17:11:09.258Z,83.30
2023-05-14T17:13:16.494Z,83.20
2023-05-14T17:15:23.827Z,83.10
2023-05-14T17:17:31.118Z,83.10
2023-05-14T17:19:37.969Z,83.00
2023-05-14T17:21:46.752Z,82.90
2023-05-14T17:23:53.577Z,82.70
2023-05-14T17:26:00.782Z,82.80
2023-05-14T17:28:07.798Z,82.90
2023-05-14T17:30:16.094Z,82.80
2023-05-14T17:32:23.138Z,82.80
2023-05-14T17:34:30.104Z,82.70
2023-05-14T17:36:37.542Z,82.60
2023-05-14T17:38:46.198Z,82.60
2023-05-14T17:40:53.451Z,82.70
2023-05-14T17:43:00.254Z,82.70
2023-05-14T17:45:07.797Z,82.70
2023-05-14T17:47:14.876Z,82.70
2023-05-14T17:49:22.069Z,82.90
2023-05-14T17:51:28.886Z,83.10
2023-05-14T17:53:35.870Z,83.40
2023-05-14T17:55:45.097Z,83.90
2023-05-14T17:57:52.331Z,84.10
2023-05-14T17:59:59.050Z,84.10
2023-05-14T18:02:06.698Z,84.10
2023-05-14T18:04:13.606Z,84.10
2023-05-14T18:06:20.949Z,84.10
2023-05-14T18:08:27.740Z,84.40
2023-05-14T18:10:34.808Z,84.90
2023-05-14T18:12:43.638Z,85.90
2023-05-14T18:14:50.573Z,85.50
2023-05-14T18:16:58.167Z,85.40
2023-05-14T18:19:05.207Z,85.80
2023-05-14T18:21:12.367Z,86.10
2023-05-14T18:23:20.412Z,86.10
2023-05-14T18:25:28.011Z,86.10
2023-05-14T18:27:34.885Z,86.40
2023-05-14T18:29:43.701Z,86.60
2023-05-14T18:31:50.420Z,86.40
2023-05-14T18:33:57.652Z,87.00
2023-05-14T18:36:05.043Z,86.80
2023-05-14T18:38:12.889Z,87.20
2023-05-14T18:40:19.661Z,87.20
2023-05-14T18:42:26.739Z,86.90
2023-05-14T18:44:33.661Z,87.10
2023-05-14T18:46:42.569Z,87.70
2023-05-14T18:48:49.564Z,88.00
2023-05-14T18:50:57.052Z,88.20
2023-05-14T18:53:04.028Z,88.40
2023-05-14T18:55:12.034Z,88.90
2023-05-14T18:57:18.904Z,89.20
2023-05-14T18:59:26.034Z,89.50
2023-05-14T19:01:32.962Z,89.90
2023-05-14T19:03:43.069Z,90.00
2023-05-14T19:05:51.636Z,90.00
2023-05-14T19:07:59.578Z,90.10
2023-05-14T19:10:06.559Z,90.40
2023-05-14T19:12:13.744Z,90.40
2023-05-14T19:14:20.537Z,90.70
2023-05-14T19:16:27.768Z,91.10
2023-05-14T19:18:34.739Z,91.60
2023-05-14T19:20:43.684Z,92.60
2023-05-14T19:22:50.558Z,92.80
2023-05-14T19:24:57.743Z,93.10
2023-05-14T19:27:05.024Z,93.30
2023-05-14T19:29:12.210Z,93.40
2023-05-14T19:31:19.206Z,93.50
2023-05-14T19:33:26.988Z,93.30
2023-05-14T19:35:34.008Z,93.20
2023-05-14T19:37:42.811Z,93.00
2023-05-14T19:39:50.164Z,92.60
2023-05-14T19:41:57.343Z,92.20
2023-05-14T19:44:04.581Z,92.00
2023-05-14T19:46:11.818Z,92.10
2023-05-14T19:48:20.223Z,92.10
2023-05-14T19:50:27.352Z,91.90
2023-05-14T19:52:34.531Z,91.80
2023-05-14T19:54:43.617Z,91.80
2023-05-14T19:56:51.132Z,91.80
2023-05-14T19:58:58.337Z,91.90
2023-05-14T20:01:05.385Z,91.80
2023-05-14T20:03:12.420Z,92.30
2023-05-14T20:05:19.872Z,92.20
2023-05-14T20:07:27.004Z,92.50
2023-05-14T20:09:34.037Z,92.90
2023-05-14T20:11:42.708Z,93.30
2023-05-14T20:13:49.842Z,93.50
2023-05-14T20:15:56.968Z,93.50
2023-05-14T20:18:04.132Z,93.70
2023-05-14T20:20:13.121Z,93.70
2023-05-14T20:22:20.271Z,93.80
2023-05-14T20:24:27.070Z,93.80
2023-05-14T20:26:34.150Z,94.50
2023-05-14T20:28:44.464Z,94.70
2023-05-14T20:30:51.620Z,94.90
2023-05-14T20:32:58.556Z,95.10
2023-05-14T20:35:06.152Z,95.20
2023-05-14T20:37:12.925Z,95.40
2023-05-14T20:39:20.164Z,95.40
2023-05-14T20:41:27.286Z,95.70
2023-05-14T20:43:34.424Z,96.20
2023-05-14T20:45:43.032Z,96.20
2023-05-14T20:47:50.353Z,96.30
2023-05-14T20:49:57.100Z,96.40
2023-05-14T20:52:04.173Z,96.20
2023-05-14T20:54:10.945Z,96.20
2023-05-14T20:56:18.123Z,96.00
2023-05-14T20:58:25.414Z,96.00
2023-05-14T21:00:32.758Z,95.80
2023-05-14T21:02:41.803Z,95.80
2023-05-14T21:04:49.140Z,95.70
2023-05-14T21:06:56.132Z,95.70
2023-05-14T21:09:03.415Z,95.50
2023-05-14T21:11:10.338Z,95.50
2023-05-14T21:13:17.573Z,95.50
2023-05-14T21:15:24.524Z,95.30
2023-05-14T21:17:31.542Z,95.30
2023-05-14T21:19:40.139Z,95.10
2023-05-14T21:21:48.347Z,94.90
2023-05-14T21:23:55.167Z,94.70
2023-05-14T21:26:02.358Z,94.60
2023-05-14T21:28:09.263Z,94.80
2023-05-14T21:30:17.327Z,95.00
2023-05-14T21:32:24.854Z,94.60
2023-05-14T21:34:32.158Z,94.70
2023-05-14T21:36:40.820Z,94.70
2023-05-14T21:38:47.852Z,95.10
2023-05-14T21:40:54.670Z,95.50
2023-05-14T21:43:01.654Z,95.60
2023-05-14T21:45:09.647Z,95.80
2023-05-14T21:47:16.831Z,95.80
2023-05-14T21:49:23.759Z,95.70
2023-05-14T21:51:30.833Z,95.60
2023-05-14T21:53:39.455Z,95.40
2023-05-14T21:55:46.703Z,95.20
2023-05-14T21:57:53.607Z,95.00
2023-05-14T22:00:00.900Z,94.90
2023-05-14T22:02:08.322Z,94.90
2023-05-14T22:04:16.071Z,94.80
2023-05-14T22:06:23.105Z,94.90
2023-05-14T22:08:31.770Z,94.80
2023-05-14T22:10:40.857Z,94.70
2023-05-14T22:12:48.279Z,94.60
2023-05-14T22:14:55.315Z,94.40
2023-05-14T22:17:02.137Z,94.40
2023-05-14T22:19:09.290Z,94.50
2023-05-14T22:21:16.137Z,94.60
2023-05-14T22:23:23.424Z,94.50
2023-05-14T22:25:30.402Z,94.30
2023-05-14T22:27:39.325Z,94.10
2023-05-14T22:29:46.248Z,94.00
2023-05-14T22:31:53.380Z,93.90
2023-05-14T22:34:00.083Z,93.80
2023-05-14T22:36:08.017Z,94.00
2023-05-14T22:38:15.228Z,94.20
2023-05-14T22:40:22.561Z,94.30
2023-05-14T22:42:29.442Z,94.50
2023-05-14T22:44:38.309Z,94.70
2023-05-14T22:46:45.561Z,94.70
2023-05-14T22:48:52.675Z,94.60
2023-05-14T22:50:59.551Z,94.60
2023-05-14T22:53:06.734Z,94.70
2023-05-14T22:55:13.918Z,94.80
2023-05-14T22:57:21.358Z,94.90
2023-05-14T22:59:28.279Z,95.00
2023-05-14T23:01:37.136Z,95.20
2023-05-14T23:03:43.868Z,95.60
2023-05-14T23:05:52.898Z,95.80
2023-05-14T23:08:00.099Z,96.10
2023-05-14T23:10:07.474Z,96.20
2023-05-14T23:12:14.341Z,96.30
2023-05-14T23:14:21.265Z,96.30
2023-05-14T23:16:28.237Z,96.40
2023-05-14T23:18:37.431Z,96.30
2023-05-14T23:20:44.792Z,96.10
2023-05-14T23:22:51.829Z,95.90
2023-05-14T23:24:58.653Z,95.80
2023-05-14T23:27:05.703Z,95.60
2023-05-14T23:29:12.453Z,95.40
2023-05-14T23:31:19.499Z,95.30
2023-05-14T23:33:26.250Z,95.20
2023-05-14T23:35:35.173Z,95.10
2023-05-14T23:37:47.887Z,95.00
2023-05-14T23:39:55.071Z,95.00
2023-05-14T23:42:01.946Z,94.80
2023-05-14T23:44:09.171Z,94.60
2023-05-14T23:46:16.134Z,94.20
2023-05-14T23:48:23.279Z,93.60
2023-05-14T23:50:30.255Z,93.20
2023-05-14T23:52:39.124Z,92.70
2023-05-14T23:54:45.896Z,91.90
2023-05-14T23:56:53.441Z,91.60
2023-05-14T23:59:00.267Z,91.20
